createdAt,value
2018-01-25T00:00:10.482Z,97668.75
2018-01-25T00:00:42.154Z,97669.59
2018-01-25T00:01:13.801Z,97661.09
2018-01-25T00:01:45.461Z,97665.78
2018-01-25T00:02:17.118Z,97674.33
2018-01-25T00:02:48.833Z,97664.05
2018-01-25T00:03:20.489Z,97658.12
2018-01-25T00:03:52.141Z,97664.05
2018-01-25T00:04:23.789Z,97673.79
2018-01-25T00:04:55.441Z,97671.21
2018-01-25T00:05:27.089Z,97669.58
2018-01-25T00:05:58.744Z,97670.73
2018-01-25T00:06:30.494Z,97677.53
2018-01-25T00:07:02.146Z,97682.64
2018-01-25T00:07:33.793Z,97682.61
2018-01-25T00:08:05.500Z,97689.85
2018-01-25T00:08:37.184Z,97688.66
2018-01-25T00:09:08.837Z,97697.97
2018-01-25T00:09:40.485Z,97690.30
2018-01-25T00:10:12.138Z,97694.61
2018-01-25T00:10:43.789Z,97693.72
2018-01-25T00:11:15.442Z,97695.38
2018-01-25T00:11:47.094Z,97697.09
2018-01-25T00:12:18.834Z,97701.36
2018-01-25T00:12:50.485Z,97705.17
2018-01-25T00:13:22.192Z,97697.05
2018-01-25T00:13:53.841Z,97702.98
2018-01-25T00:14:25.498Z,97702.49
2018-01-25T00:14:57.154Z,97699.09
2018-01-25T00:15:28.806Z,97703.34
2018-01-25T00:16:00.454Z,97699.92
2018-01-25T00:16:32.106Z,97707.60
2018-01-25T00:17:03.761Z,97704.67
2018-01-25T00:17:35.410Z,97710.55
2018-01-25T00:18:07.057Z,97711.77
2018-01-25T00:18:38.774Z,97713.42
2018-01-25T00:19:10.426Z,97713.41
2018-01-25T00:19:42.142Z,97717.16
2018-01-25T00:20:13.789Z,97709.14
2018-01-25T00:20:45.441Z,97714.17
2018-01-25T00:21:17.090Z,97708.28
2018-01-25T00:21:48.741Z,97713.41
2018-01-25T00:22:20.389Z,97718.00
2018-01-25T00:22:52.037Z,97716.30
2018-01-25T00:23:23.685Z,97717.10
2018-01-25T00:23:55.397Z,97718.79
2018-01-25T00:24:27.054Z,97723.05
2018-01-25T00:24:58.783Z,97723.05
2018-01-25T00:25:30.437Z,97720.01
2018-01-25T00:26:02.090Z,97718.80
2018-01-25T00:26:33.742Z,97725.12
2018-01-25T00:27:05.394Z,97725.08
2018-01-25T00:27:37.054Z,97720.90
2018-01-25T00:28:08.710Z,97715.37
2018-01-25T00:28:40.366Z,97723.41
2018-01-25T00:29:12.077Z,97720.90
2018-01-25T00:29:43.735Z,97721.34
2018-01-25T00:30:15.385Z,97722.20
2018-01-25T00:30:47.034Z,97720.88
2018-01-25T00:31:18.681Z,97724.63
2018-01-25T00:31:50.339Z,97720.86
2018-01-25T00:32:22.071Z,97717.89
2018-01-25T00:32:53.727Z,97719.65
2018-01-25T00:33:25.373Z,97728.17
2018-01-25T00:33:57.026Z,97723.48
2018-01-25T00:34:28.857Z,97720.94
2018-01-25T00:35:00.505Z,97728.59
2018-01-25T00:35:32.158Z,97718.44
2018-01-25T00:36:03.814Z,97718.80
2018-01-25T00:36:35.474Z,97720.55
2018-01-25T00:37:07.130Z,97717.23
2018-01-25T00:37:38.892Z,97714.27
2018-01-25T00:38:10.542Z,97711.77
2018-01-25T00:38:42.189Z,97718.15
2018-01-25T00:39:13.957Z,97718.22
2018-01-25T00:39:45.669Z,97720.37
2018-01-25T00:40:17.318Z,97725.88
2018-01-25T00:40:48.998Z,97728.38
2018-01-25T00:41:20.649Z,97726.73
2018-01-25T00:41:52.302Z,97725.83
2018-01-25T00:42:23.953Z,97721.56
2018-01-25T00:42:55.601Z,97724.97
2018-01-25T00:43:27.335Z,97733.41
2018-01-25T00:43:58.985Z,97727.02
2018-01-25T00:44:30.634Z,97723.61
2018-01-25T00:45:02.345Z,97721.91
2018-01-25T00:45:34.021Z,97721.08
2018-01-25T00:46:05.669Z,97725.77
2018-01-25T00:46:37.326Z,97718.95
2018-01-25T00:47:08.983Z,97716.47
2018-01-25T00:47:40.634Z,97717.37
2018-01-25T00:48:12.282Z,97719.52
2018-01-25T00:48:43.938Z,97721.70
2018-01-25T00:49:15.592Z,97718.30
2018-01-25T00:49:47.238Z,97723.83
2018-01-25T00:50:18.950Z,97718.75
2018-01-25T00:50:50.605Z,97717.11
2018-01-25T00:51:22.253Z,97717.11
2018-01-25T00:51:53.902Z,97714.11
2018-01-25T00:52:25.549Z,97713.25
2018-01-25T00:52:57.197Z,97713.27
2018-01-25T00:53:28.846Z,97711.50
2018-01-25T00:54:00.497Z,97709.38
2018-01-25T00:54:32.148Z,97709.42
2018-01-25T00:55:03.801Z,97712.85
2018-01-25T00:55:35.534Z,97715.81
2018-01-25T00:56:07.190Z,97707.30
2018-01-25T00:56:38.841Z,97706.05
2018-01-25T00:57:10.494Z,97702.65
2018-01-25T00:57:42.143Z,97701.43
2018-01-25T00:58:13.798Z,97705.67
2018-01-25T00:58:45.454Z,97698.45
2018-01-25T00:59:17.113Z,97711.27
2018-01-25T00:59:48.765Z,97695.12
2018-01-25T01:00:20.422Z,97695.55
2018-01-25T01:00:52.134Z,97696.77
2018-01-25T01:01:23.786Z,97699.74
2018-01-25T01:01:55.443Z,97704.41
2018-01-25T01:02:27.098Z,97699.73
2018-01-25T01:02:58.745Z,97701.85
2018-01-25T01:03:30.393Z,97700.58
2018-01-25T01:04:02.082Z,97695.91
2018-01-25T01:04:33.729Z,97695.97
2018-01-25T01:05:05.378Z,97697.23
2018-01-25T01:05:37.034Z,97693.84
2018-01-25T01:06:08.754Z,97683.49
2018-01-25T01:06:40.405Z,97681.97
2018-01-25T01:07:12.055Z,97694.74
2018-01-25T01:07:43.701Z,97695.26
2018-01-25T01:08:15.358Z,97695.41
2018-01-25T01:08:47.009Z,97693.78
2018-01-25T01:09:18.657Z,97689.67
2018-01-25T01:09:50.307Z,97687.47
2018-01-25T01:10:21.957Z,97684.19
2018-01-25T01:10:53.610Z,97687.16
2018-01-25T01:11:25.392Z,97683.29
2018-01-25T01:11:57.051Z,97693.06
2018-01-25T01:12:28.702Z,97689.22
2018-01-25T01:13:00.349Z,97687.95
2018-01-25T01:13:31.997Z,97682.84
2018-01-25T01:14:03.653Z,97691.73
2018-01-25T01:14:35.306Z,97684.11
2018-01-25T01:15:06.954Z,97684.55
2018-01-25T01:15:38.601Z,97687.59
2018-01-25T01:16:10.326Z,97695.64
2018-01-25T01:16:42.110Z,97689.30
2018-01-25T01:17:13.762Z,97687.16
2018-01-25T01:17:45.409Z,97686.33
2018-01-25T01:18:17.066Z,97682.92
2018-01-25T01:18:48.717Z,97682.06
2018-01-25T01:19:20.370Z,97681.23
2018-01-25T01:19:52.021Z,97682.52
2018-01-25T01:20:23.685Z,97683.84
2018-01-25T01:20:55.386Z,97675.33
2018-01-25T01:21:27.033Z,97682.98
2018-01-25T01:21:58.833Z,97680.88
2018-01-25T01:22:30.522Z,97676.61
2018-01-25T01:23:02.173Z,97678.75
2018-01-25T01:23:33.848Z,97677.52
2018-01-25T01:24:05.503Z,97674.48
2018-01-25T01:24:37.158Z,97676.61
2018-01-25T01:25:08.806Z,97677.83
2018-01-25T01:25:40.453Z,97673.64
2018-01-25T01:26:12.106Z,97678.73
2018-01-25T01:26:43.753Z,97665.14
2018-01-25T01:27:15.469Z,97662.16
2018-01-25T01:27:47.117Z,97676.61
2018-01-25T01:28:18.774Z,97669.80
2018-01-25T01:28:50.422Z,97677.05
2018-01-25T01:29:22.109Z,97671.07
2018-01-25T01:29:53.810Z,97673.64
2018-01-25T01:30:25.462Z,97672.84
2018-01-25T01:30:57.109Z,97670.73
2018-01-25T01:31:28.758Z,97669.37
2018-01-25T01:32:00.405Z,97666.82
2018-01-25T01:32:32.113Z,97671.50
2018-01-25T01:33:03.766Z,97665.98
2018-01-25T01:33:35.418Z,97666.78
2018-01-25T01:34:07.074Z,97669.31
2018-01-25T01:34:38.722Z,97671.07
2018-01-25T01:35:10.378Z,97669.75
2018-01-25T01:35:42.025Z,97667.19
2018-01-25T01:36:13.677Z,97662.14
2018-01-25T01:36:45.329Z,97663.34
2018-01-25T01:37:16.977Z,97662.91
2018-01-25T01:37:48.686Z,97663.73
2018-01-25T01:38:20.345Z,97655.63
2018-01-25T01:38:51.997Z,97663.28
2018-01-25T01:39:23.658Z,97659.04
2018-01-25T01:39:55.313Z,97660.30
2018-01-25T01:40:26.962Z,97656.83
2018-01-25T01:40:58.609Z,97661.45
2018-01-25T01:41:30.318Z,97660.22
2018-01-25T01:42:01.970Z,97665.61
2018-01-25T01:42:33.622Z,97658.37
2018-01-25T01:43:05.337Z,97663.86
2018-01-25T01:43:36.985Z,97656.61
2018-01-25T01:44:08.638Z,97652.36
2018-01-25T01:44:40.373Z,97651.16
2018-01-25T01:45:12.026Z,97651.59
2018-01-25T01:45:43.717Z,97651.58
2018-01-25T01:46:15.365Z,97657.58
2018-01-25T01:46:47.015Z,97657.96
2018-01-25T01:47:18.670Z,97655.80
2018-01-25T01:47:50.317Z,97650.66
2018-01-25T01:48:22.028Z,97653.20
2018-01-25T01:48:53.677Z,97660.84
2018-01-25T01:49:25.333Z,97662.50
2018-01-25T01:49:56.986Z,97659.50
2018-01-25T01:50:28.633Z,97657.72
2018-01-25T01:51:00.286Z,97660.70
2018-01-25T01:51:31.933Z,97658.16
2018-01-25T01:52:03.581Z,97656.51
2018-01-25T01:52:35.233Z,97659.95
2018-01-25T01:53:06.882Z,97654.83
2018-01-25T01:53:38.599Z,97658.22
2018-01-25T01:54:10.274Z,97656.97
2018-01-25T01:54:41.926Z,97656.89
2018-01-25T01:55:13.573Z,97656.03
2018-01-25T01:55:45.222Z,97655.55
2018-01-25T01:56:16.874Z,97660.27
2018-01-25T01:56:48.525Z,97656.38
2018-01-25T01:57:20.178Z,97650.08
2018-01-25T01:57:51.825Z,97650.99
2018-01-25T01:58:23.477Z,97653.11
2018-01-25T01:58:55.268Z,97645.90
2018-01-25T01:59:26.918Z,97646.80
2018-01-25T01:59:58.569Z,97652.77
2018-01-25T02:00:30.222Z,97651.44
2018-01-25T02:01:01.874Z,97648.50
2018-01-25T02:01:33.525Z,97649.38
2018-01-25T02:02:05.177Z,97646.87
2018-01-25T02:02:36.830Z,97650.12
2018-01-25T02:03:08.481Z,97653.56
2018-01-25T02:03:40.141Z,97642.98
2018-01-25T02:04:11.858Z,97641.77
2018-01-25T02:04:43.510Z,97645.18
2018-01-25T02:05:15.178Z,97649.44
2018-01-25T02:05:46.834Z,97647.68
2018-01-25T02:06:18.490Z,97647.73
2018-01-25T02:06:50.138Z,97646.89
2018-01-25T02:07:21.914Z,97643.83
2018-01-25T02:07:53.570Z,97645.98
2018-01-25T02:08:25.221Z,97642.12
2018-01-25T02:08:56.878Z,97645.59
2018-01-25T02:09:28.593Z,97639.64
2018-01-25T02:10:00.249Z,97639.66
2018-01-25T02:10:31.901Z,97642.70
2018-01-25T02:11:03.553Z,97644.75
2018-01-25T02:11:35.201Z,97641.77
2018-01-25T02:12:06.850Z,97637.19
2018-01-25T02:12:38.502Z,97637.59
2018-01-25T02:13:10.151Z,97642.70
2018-01-25T02:13:41.810Z,97645.27
2018-01-25T02:14:13.462Z,97646.95
2018-01-25T02:14:45.178Z,97649.92
2018-01-25T02:15:16.825Z,97656.69
2018-01-25T02:15:48.478Z,97649.45
2018-01-25T02:16:20.170Z,97646.95
2018-01-25T02:16:51.826Z,97645.25
2018-01-25T02:17:23.478Z,97646.12
2018-01-25T02:17:55.129Z,97644.84
2018-01-25T02:18:26.786Z,97649.15
2018-01-25T02:18:59.078Z,97644.05
2018-01-25T02:19:30.726Z,97647.46
2018-01-25T02:20:02.436Z,97651.63
2018-01-25T02:20:34.090Z,97642.66
2018-01-25T02:21:05.742Z,97645.70
2018-01-25T02:21:37.389Z,97641.87
2018-01-25T02:22:09.037Z,97645.75
2018-01-25T02:22:40.689Z,97647.88
2018-01-25T02:23:12.337Z,97649.16
2018-01-25T02:23:43.985Z,97647.89
2018-01-25T02:24:15.634Z,97649.19
2018-01-25T02:24:47.281Z,97650.94
2018-01-25T02:25:19.005Z,97650.08
2018-01-25T02:25:50.686Z,97643.79
2018-01-25T02:26:22.364Z,97651.38
2018-01-25T02:26:54.037Z,97652.65
2018-01-25T02:27:25.685Z,97651.80
2018-01-25T02:27:57.333Z,97651.80
2018-01-25T02:28:28.989Z,97654.33
2018-01-25T02:29:00.686Z,97647.05
2018-01-25T02:29:32.337Z,97650.92
2018-01-25T02:30:03.990Z,97650.95
2018-01-25T02:30:35.792Z,97650.52
2018-01-25T02:31:07.443Z,97649.23
2018-01-25T02:31:39.098Z,97647.91
2018-01-25T02:32:10.755Z,97644.08
2018-01-25T02:32:42.410Z,97647.89
2018-01-25T02:33:14.066Z,97652.16
2018-01-25T02:33:45.826Z,97648.80
2018-01-25T02:34:17.484Z,97647.55
2018-01-25T02:34:49.171Z,97643.71
2018-01-25T02:35:20.798Z,97648.83
2018-01-25T02:35:52.492Z,97644.55
2018-01-25T02:36:24.151Z,97646.63
2018-01-25T02:36:55.778Z,97642.44
2018-01-25T02:37:27.406Z,97649.69
2018-01-25T02:37:59.033Z,97642.49
2018-01-25T02:38:30.662Z,97654.84
2018-01-25T02:39:02.285Z,97654.48
2018-01-25T02:39:33.908Z,97651.02
2018-01-25T02:40:05.533Z,97647.59
2018-01-25T02:40:37.153Z,97650.58
2018-01-25T02:41:08.846Z,97653.13
2018-01-25T02:41:40.470Z,97645.90
2018-01-25T02:42:12.094Z,97641.23
2018-01-25T02:42:43.718Z,97645.98
2018-01-25T02:43:15.341Z,97646.42
2018-01-25T02:43:46.961Z,97644.78
2018-01-25T02:44:18.581Z,97650.31
2018-01-25T02:44:50.201Z,97659.65
2018-01-25T02:45:21.834Z,97655.41
2018-01-25T02:45:53.489Z,97658.33
2018-01-25T02:46:25.174Z,97658.73
2018-01-25T02:46:56.793Z,97651.52
2018-01-25T02:47:28.417Z,97643.02
2018-01-25T02:48:00.042Z,97646.33
2018-01-25T02:48:31.662Z,97648.83
2018-01-25T02:49:03.290Z,97653.94
2018-01-25T02:49:34.914Z,97651.00
2018-01-25T02:50:06.547Z,97654.00
2018-01-25T02:50:38.169Z,97659.12
2018-01-25T02:51:09.801Z,97660.81
2018-01-25T02:51:41.482Z,97662.08
2018-01-25T02:52:13.105Z,97650.57
2018-01-25T02:52:44.738Z,97659.11
2018-01-25T02:53:16.365Z,97666.75
2018-01-25T02:53:47.994Z,97672.27
2018-01-25T02:54:19.626Z,97674.42
2018-01-25T02:54:51.258Z,97676.13
2018-01-25T02:55:22.901Z,97674.48
2018-01-25T02:55:54.526Z,97662.99
2018-01-25T02:56:26.149Z,97654.48
2018-01-25T02:56:57.834Z,97657.45
2018-01-25T02:57:29.457Z,97658.73
2018-01-25T02:58:01.081Z,97661.67
2018-01-25T02:58:32.705Z,97665.47
2018-01-25T02:59:04.325Z,97662.42
2018-01-25T02:59:35.950Z,97665.39
2018-01-25T03:00:07.569Z,97664.98
2018-01-25T03:00:39.194Z,97668.80
2018-01-25T03:01:10.821Z,97672.98
2018-01-25T03:01:42.496Z,97660.66
2018-01-25T03:02:14.153Z,97669.17
2018-01-25T03:02:45.773Z,97666.63
2018-01-25T03:03:17.393Z,97670.44
2018-01-25T03:03:49.013Z,97664.05
2018-01-25T03:04:20.633Z,97670.44
2018-01-25T03:04:52.253Z,97664.47
2018-01-25T03:05:23.877Z,97667.90
2018-01-25T03:05:55.498Z,97671.28
2018-01-25T03:06:27.121Z,97667.81
2018-01-25T03:06:58.750Z,97666.53
2018-01-25T03:07:30.437Z,97667.03
2018-01-25T03:08:02.061Z,97671.72
2018-01-25T03:08:33.686Z,97669.11
2018-01-25T03:09:05.310Z,97668.61
2018-01-25T03:09:36.942Z,97673.27
2018-01-25T03:10:08.568Z,97666.41
2018-01-25T03:10:40.198Z,97664.74
2018-01-25T03:11:11.822Z,97672.77
2018-01-25T03:11:43.445Z,97665.48
2018-01-25T03:12:15.066Z,97673.55
2018-01-25T03:12:46.694Z,97673.55
2018-01-25T03:13:18.313Z,97677.81
2018-01-25T03:13:49.934Z,97670.56
2018-01-25T03:14:21.553Z,97672.27
2018-01-25T03:14:53.174Z,97670.58
2018-01-25T03:15:24.805Z,97670.30
2018-01-25T03:15:56.425Z,97661.78
2018-01-25T03:16:28.045Z,97669.50
2018-01-25T03:16:59.666Z,97674.13
2018-01-25T03:17:31.293Z,97667.38
2018-01-25T03:18:02.982Z,97669.50
2018-01-25T03:18:34.610Z,97670.80
2018-01-25T03:19:06.235Z,97678.94
2018-01-25T03:19:37.859Z,97672.98
2018-01-25T03:20:09.485Z,97681.86
2018-01-25T03:20:41.109Z,97674.68
2018-01-25T03:21:12.734Z,97667.80
2018-01-25T03:21:44.357Z,97671.22
2018-01-25T03:22:15.982Z,97663.63
2018-01-25T03:22:47.601Z,97667.83
2018-01-25T03:23:19.290Z,97660.17
2018-01-25T03:23:50.967Z,97665.39
2018-01-25T03:24:22.573Z,97658.95
2018-01-25T03:24:54.199Z,97667.81
2018-01-25T03:25:25.825Z,97675.89
2018-01-25T03:25:57.445Z,97674.98
2018-01-25T03:26:29.069Z,97675.83
2018-01-25T03:27:00.689Z,97670.30
2018-01-25T03:27:32.313Z,97673.36
2018-01-25T03:28:03.933Z,97675.89
2018-01-25T03:28:35.667Z,97675.84
2018-01-25T03:29:07.279Z,97672.48
2018-01-25T03:29:38.934Z,97672.86
2018-01-25T03:30:10.554Z,97669.88
2018-01-25T03:30:42.182Z,97678.39
2018-01-25T03:31:13.806Z,97674.20
2018-01-25T03:31:45.430Z,97678.50
2018-01-25T03:32:17.058Z,97683.55
2018-01-25T03:32:48.678Z,97676.39
2018-01-25T03:33:20.314Z,97673.00
2018-01-25T03:33:52.013Z,97668.37
2018-01-25T03:34:23.638Z,97673.41
2018-01-25T03:34:55.262Z,97670.92
2018-01-25T03:35:26.886Z,97667.11
2018-01-25T03:35:58.514Z,97669.73
2018-01-25T03:36:30.133Z,97671.87
2018-01-25T03:37:01.758Z,97672.34
2018-01-25T03:37:33.390Z,97675.28
2018-01-25T03:38:05.015Z,97676.55
2018-01-25T03:38:36.724Z,97672.78
2018-01-25T03:39:08.409Z,97676.97
2018-01-25T03:39:40.038Z,97683.27
2018-01-25T03:40:11.682Z,97680.73
2018-01-25T03:40:43.334Z,97678.59
2018-01-25T03:41:14.958Z,97676.48
2018-01-25T03:41:46.577Z,97667.55
2018-01-25T03:42:18.202Z,97668.87
2018-01-25T03:42:49.821Z,97669.67
2018-01-25T03:43:21.446Z,97673.48
2018-01-25T03:43:53.074Z,97679.46
2018-01-25T03:44:24.765Z,97679.94
2018-01-25T03:44:56.414Z,97679.50
2018-01-25T03:45:28.066Z,97680.31
2018-01-25T03:45:59.697Z,97687.55
2018-01-25T03:46:31.317Z,97664.78
2018-01-25T03:47:02.961Z,97674.36
2018-01-25T03:47:34.610Z,97668.87
2018-01-25T03:48:06.256Z,97673.57
2018-01-25T03:48:37.882Z,97673.14
2018-01-25T03:49:09.505Z,97679.11
2018-01-25T03:49:41.202Z,97682.49
2018-01-25T03:50:12.825Z,97681.59
2018-01-25T03:50:44.450Z,97685.42
2018-01-25T03:51:16.069Z,97682.42
2018-01-25T03:51:47.694Z,97690.45
2018-01-25T03:52:19.327Z,97684.55
2018-01-25T03:52:50.958Z,97686.20
2018-01-25T03:53:22.590Z,97691.72
2018-01-25T03:53:54.209Z,97686.60
2018-01-25T03:54:25.883Z,97685.75
2018-01-25T03:54:57.491Z,97689.17
2018-01-25T03:55:29.117Z,97691.73
2018-01-25T03:56:00.747Z,97692.15
2018-01-25T03:56:32.373Z,97690.51
2018-01-25T03:57:03.998Z,97687.11
2018-01-25T03:57:35.629Z,97688.39
2018-01-25T03:58:07.257Z,97692.58
2018-01-25T03:58:38.878Z,97686.63
2018-01-25T03:59:10.506Z,97692.58
2018-01-25T03:59:42.141Z,97685.03
2018-01-25T04:00:13.766Z,97687.12
2018-01-25T04:00:45.393Z,97687.59
2018-01-25T04:01:17.013Z,97689.74
2018-01-25T04:01:48.634Z,97691.42
2018-01-25T04:02:20.266Z,97693.98
2018-01-25T04:02:51.886Z,97706.27
2018-01-25T04:03:23.505Z,97702.42
2018-01-25T04:03:55.134Z,97695.20
2018-01-25T04:04:26.766Z,97699.09
2018-01-25T04:04:58.393Z,97705.05
2018-01-25T04:05:30.022Z,97700.94
2018-01-25T04:06:01.650Z,97712.63
2018-01-25T04:06:33.273Z,97716.89
2018-01-25T04:07:04.894Z,97717.76
2018-01-25T04:07:36.517Z,97719.81
2018-01-25T04:08:08.147Z,97719.00
2018-01-25T04:08:39.774Z,97715.60
2018-01-25T04:09:11.397Z,97713.41
2018-01-25T04:09:43.017Z,97709.59
2018-01-25T04:10:14.702Z,97708.38
2018-01-25T04:10:46.322Z,97712.20
2018-01-25T04:11:17.962Z,97716.02
2018-01-25T04:11:49.580Z,97717.72
2018-01-25T04:12:21.205Z,97718.09
2018-01-25T04:12:52.830Z,97720.59
2018-01-25T04:13:24.458Z,97723.56
2018-01-25T04:13:56.085Z,97729.09
2018-01-25T04:14:27.710Z,97724.89
2018-01-25T04:14:59.337Z,97724.46
2018-01-25T04:15:31.017Z,97730.44
2018-01-25T04:16:02.637Z,97728.31
2018-01-25T04:16:34.266Z,97722.77
2018-01-25T04:17:05.890Z,97723.62
2018-01-25T04:17:37.517Z,97728.30
2018-01-25T04:18:09.142Z,97725.75
2018-01-25T04:18:40.765Z,97732.14
2018-01-25T04:19:12.393Z,97729.08
2018-01-25T04:19:44.013Z,97731.13
2018-01-25T04:20:15.642Z,97731.52
2018-01-25T04:20:47.334Z,97731.52
2018-01-25T04:21:18.966Z,97723.47
2018-01-25T04:21:50.590Z,97725.13
2018-01-25T04:22:22.209Z,97721.34
2018-01-25T04:22:53.838Z,97725.12
2018-01-25T04:23:25.461Z,97728.53
2018-01-25T04:23:57.086Z,97737.80
2018-01-25T04:24:28.710Z,97731.78
2018-01-25T04:25:00.330Z,97736.05
2018-01-25T04:25:31.954Z,97734.33
2018-01-25T04:26:03.633Z,97735.19
2018-01-25T04:26:35.258Z,97739.52
2018-01-25T04:27:06.877Z,97739.95
2018-01-25T04:27:38.497Z,97739.64
2018-01-25T04:28:10.121Z,97744.74
2018-01-25T04:28:41.745Z,97741.78
2018-01-25T04:29:13.375Z,97743.48
2018-01-25T04:29:44.998Z,97744.26
2018-01-25T04:30:16.617Z,97743.41
2018-01-25T04:30:48.237Z,97748.47
2018-01-25T04:31:19.913Z,97758.73
2018-01-25T04:31:51.537Z,97751.92
2018-01-25T04:32:23.161Z,97751.92
2018-01-25T04:32:54.789Z,97748.11
2018-01-25T04:33:26.412Z,97748.17
2018-01-25T04:33:58.033Z,97752.05
2018-01-25T04:34:29.653Z,97744.42
2018-01-25T04:35:01.274Z,97740.17
2018-01-25T04:35:32.902Z,97748.67
2018-01-25T04:36:04.525Z,97749.16
2018-01-25T04:36:36.205Z,97745.27
2018-01-25T04:37:07.829Z,97746.95
2018-01-25T04:37:39.458Z,97742.65
2018-01-25T04:38:11.081Z,97748.73
2018-01-25T04:38:42.705Z,97750.87
2018-01-25T04:39:14.326Z,97749.64
2018-01-25T04:39:45.949Z,97746.25
2018-01-25T04:40:17.573Z,97744.53
2018-01-25T04:40:49.197Z,97746.68
2018-01-25T04:41:20.817Z,97745.89
2018-01-25T04:41:52.442Z,97745.09
2018-01-25T04:42:24.094Z,97744.28
2018-01-25T04:42:55.737Z,97738.37
2018-01-25T04:43:27.377Z,97742.98
2018-01-25T04:43:59.025Z,97744.25
2018-01-25T04:44:30.646Z,97740.87
2018-01-25T04:45:02.266Z,97742.20
2018-01-25T04:45:33.889Z,97736.25
2018-01-25T04:46:05.514Z,97742.98
2018-01-25T04:46:37.133Z,97742.19
2018-01-25T04:47:08.758Z,97747.75
2018-01-25T04:47:40.410Z,97743.47
2018-01-25T04:48:12.034Z,97746.47
2018-01-25T04:48:43.663Z,97743.48
2018-01-25T04:49:15.357Z,97739.22
2018-01-25T04:49:46.977Z,97745.69
2018-01-25T04:50:18.626Z,97742.70
2018-01-25T04:50:50.249Z,97746.55
2018-01-25T04:51:21.873Z,97747.02
2018-01-25T04:51:53.502Z,97744.03
2018-01-25T04:52:25.190Z,97744.87
2018-01-25T04:52:56.818Z,97744.84
2018-01-25T04:53:28.437Z,97743.20
2018-01-25T04:54:00.059Z,97740.64
2018-01-25T04:54:31.682Z,97740.69
2018-01-25T04:55:03.301Z,97741.48
2018-01-25T04:55:34.926Z,97735.55
2018-01-25T04:56:06.550Z,97737.25
2018-01-25T04:56:38.169Z,97736.81
2018-01-25T04:57:09.805Z,97728.78
2018-01-25T04:57:41.518Z,97735.52
2018-01-25T04:58:13.147Z,97740.16
2018-01-25T04:58:44.769Z,97736.33
2018-01-25T04:59:16.394Z,97718.09
2018-01-25T04:59:48.021Z,97721.92
2018-01-25T05:00:19.641Z,97729.09
2018-01-25T05:00:51.262Z,97735.03
2018-01-25T05:01:22.881Z,97740.50
2018-01-25T05:01:54.501Z,97732.85
2018-01-25T05:02:26.121Z,97730.28
2018-01-25T05:02:57.806Z,97727.30
2018-01-25T05:03:29.432Z,97731.52
2018-01-25T05:04:01.054Z,97738.73
2018-01-25T05:04:32.678Z,97727.66
2018-01-25T05:05:04.298Z,97734.06
2018-01-25T05:05:35.917Z,97733.25
2018-01-25T05:06:07.537Z,97737.94
2018-01-25T05:06:39.157Z,97730.23
2018-01-25T05:07:10.777Z,97733.55
2018-01-25T05:07:42.402Z,97724.61
2018-01-25T05:08:14.085Z,97725.95
2018-01-25T05:08:45.714Z,97728.02
2018-01-25T05:09:17.341Z,97724.60
2018-01-25T05:09:48.965Z,97724.13
2018-01-25T05:10:20.599Z,97726.73
2018-01-25T05:10:52.221Z,97726.38
2018-01-25T05:11:23.850Z,97730.59
2018-01-25T05:11:55.473Z,97728.45
2018-01-25T05:12:27.098Z,97727.66
2018-01-25T05:12:58.717Z,97730.98
2018-01-25T05:13:30.406Z,97737.40
2018-01-25T05:14:02.047Z,97726.75
2018-01-25T05:14:33.669Z,97725.98
2018-01-25T05:15:05.295Z,97726.45
2018-01-25T05:15:36.922Z,97731.92
2018-01-25T05:16:08.566Z,97736.97
2018-01-25T05:16:40.709Z,97735.70
2018-01-25T05:17:32.219Z,97731.91
2018-01-25T05:18:03.866Z,97733.53
2018-01-25T05:18:35.573Z,97732.22
2018-01-25T05:19:07.218Z,97735.61
2018-01-25T05:19:38.873Z,97736.89
2018-01-25T05:20:10.557Z,97734.76
2018-01-25T05:20:42.198Z,97736.45
2018-01-25T05:21:13.841Z,97737.68
2018-01-25T05:21:45.485Z,97733.84
2018-01-25T05:22:17.126Z,97730.02
2018-01-25T05:22:48.754Z,97738.10
2018-01-25T05:23:20.399Z,97740.70
2018-01-25T05:23:52.101Z,97741.14
2018-01-25T05:24:23.749Z,97740.64
2018-01-25T05:24:55.368Z,97746.11
2018-01-25T05:25:26.990Z,97743.55
2018-01-25T05:25:58.615Z,97740.14
2018-01-25T05:26:30.249Z,97732.92
2018-01-25T05:27:01.878Z,97737.19
2018-01-25T05:27:33.501Z,97739.73
2018-01-25T05:28:05.145Z,97742.69
2018-01-25T05:28:36.765Z,97747.33
2018-01-25T05:29:08.385Z,97743.11
2018-01-25T05:29:40.010Z,97745.17
2018-01-25T05:30:11.629Z,97740.88
2018-01-25T05:30:43.275Z,97736.24
2018-01-25T05:31:14.901Z,97743.91
2018-01-25T05:31:46.525Z,97733.05
2018-01-25T05:32:18.170Z,97746.48
2018-01-25T05:32:49.812Z,97743.91
2018-01-25T05:33:21.456Z,97746.48
2018-01-25T05:33:53.116Z,97737.09
2018-01-25T05:34:24.802Z,97742.20
2018-01-25T05:34:56.430Z,97744.33
2018-01-25T05:35:28.077Z,97743.91
2018-01-25T05:35:59.733Z,97747.72
2018-01-25T05:36:31.381Z,97740.88
2018-01-25T05:37:03.030Z,97749.01
2018-01-25T05:37:34.650Z,97747.24
2018-01-25T05:38:06.270Z,97741.34
2018-01-25T05:38:37.903Z,97746.03
2018-01-25T05:39:09.554Z,97749.81
2018-01-25T05:39:41.238Z,97749.38
2018-01-25T05:40:12.862Z,97757.81
2018-01-25T05:40:44.481Z,97755.67
2018-01-25T05:41:16.102Z,97754.85
2018-01-25T05:41:47.730Z,97759.10
2018-01-25T05:42:19.358Z,97750.92
2018-01-25T05:42:50.977Z,97746.20
2018-01-25T05:43:22.640Z,97745.31
2018-01-25T05:43:54.262Z,97753.05
2018-01-25T05:44:25.893Z,97745.26
2018-01-25T05:44:57.577Z,97752.56
2018-01-25T05:45:29.201Z,97759.80
2018-01-25T05:46:00.823Z,97761.02
2018-01-25T05:46:32.450Z,97746.97
2018-01-25T05:47:04.078Z,97752.50
2018-01-25T05:47:35.697Z,97758.01
2018-01-25T05:48:07.317Z,97756.80
2018-01-25T05:48:38.937Z,97756.83
2018-01-25T05:49:10.566Z,97751.66
2018-01-25T05:49:42.194Z,97753.05
2018-01-25T05:50:13.882Z,97750.95
2018-01-25T05:50:45.510Z,97756.89
2018-01-25T05:51:17.137Z,97754.00
2018-01-25T05:51:48.761Z,97759.95
2018-01-25T05:52:20.386Z,97758.18
2018-01-25T05:52:52.018Z,97759.02
2018-01-25T05:53:23.638Z,97751.34
2018-01-25T05:53:55.257Z,97768.87
2018-01-25T05:54:26.877Z,97756.55
2018-01-25T05:54:58.497Z,97762.12
2018-01-25T05:55:30.186Z,97760.06
2018-01-25T05:56:01.821Z,97758.32
2018-01-25T05:56:33.461Z,97760.50
2018-01-25T05:57:05.086Z,97758.38
2018-01-25T05:57:36.713Z,97757.10
2018-01-25T05:58:08.342Z,97759.20
2018-01-25T05:58:39.961Z,97759.16
2018-01-25T05:59:11.593Z,97757.47
2018-01-25T05:59:43.214Z,97759.23
2018-01-25T06:00:14.849Z,97761.42
2018-01-25T06:00:46.533Z,97761.84
2018-01-25T06:01:18.153Z,97764.83
2018-01-25T06:01:49.773Z,97766.13
2018-01-25T06:02:21.397Z,97762.28
2018-01-25T06:02:53.018Z,97763.62
2018-01-25T06:03:24.645Z,97769.95
2018-01-25T06:03:56.290Z,97765.70
2018-01-25T06:04:27.916Z,97764.42
2018-01-25T06:04:59.545Z,97768.66
2018-01-25T06:05:31.170Z,97758.52
2018-01-25T06:06:02.853Z,97762.71
2018-01-25T06:06:34.482Z,97762.28
2018-01-25T06:07:06.111Z,97767.36
2018-01-25T06:07:37.734Z,97763.62
2018-01-25T06:08:09.361Z,97769.57
2018-01-25T06:08:40.986Z,97769.64
2018-01-25T06:09:12.610Z,97767.52
2018-01-25T06:09:44.238Z,97769.63
2018-01-25T06:10:15.866Z,97772.14
2018-01-25T06:10:47.490Z,97765.34
2018-01-25T06:11:19.125Z,97767.95
2018-01-25T06:11:50.745Z,97765.84